Time;durP1;ratioP1;P1;durP2;ratioP2;P2;SDS_P1;SDS_P2;PMS_P1;PMS_P2;Temp;Humidity;BMP_temperature;BMP_pressure;BME280_temperature;BME280_humidity;BME280_pressure;Samples;Min_cycle;Max_cycle;Signal;HPM_P1;HPM_P2
2021/12/31 00:01:45;;;;;;;15.82;3.03;;;12.30;99.90;;;;;;4973438;28;21986;-77
2021/12/31 00:04:11;;;;;;;16.65;3.25;;;12.40;99.90;;;;;;4989928;28;20042;-77
2021/12/31 00:06:36;;;;;;;14.80;3.13;;;12.40;99.90;;;;;;4973586;28;20492;-76
2021/12/31 00:09:05;;;;;;;17.75;3.25;;;12.30;99.90;;;;;;4974455;28;20382;-76
2021/12/31 00:11:31;;;;;;;15.35;3.08;;;12.30;99.90;;;;;;4972867;28;20061;-76
2021/12/31 00:13:56;;;;;;;15.68;2.78;;;12.40;99.90;;;;;;4974113;28;20055;-77
2021/12/31 00:16:22;;;;;;;13.60;3.05;;;12.30;99.90;;;;;;5059074;28;20514;-77
2021/12/31 00:18:48;;;;;;;15.48;3.15;;;12.20;99.90;;;;;;5058406;28;20057;-77
2021/12/31 00:21:13;;;;;;;15.80;2.70;;;12.20;99.90;;;;;;4974878;28;20073;-76
2021/12/31 00:23:42;;;;;;;12.18;2.90;;;12.20;99.90;;;;;;4953770;28;20090;-77
2021/12/31 00:26:07;;;;;;;13.15;2.90;;;12.20;99.90;;;;;;4986315;28;20199;-77
2021/12/31 00:28:33;;;;;;;14.23;2.88;;;12.20;99.90;;;;;;4974931;28;20514;-77
2021/12/31 00:30:59;;;;;;;13.60;2.85;;;12.20;99.90;;;;;;5059049;28;20050;-76
2021/12/31 00:33:25;;;;;;;16.17;3.10;;;12.20;99.90;;;;;;4988932;28;20053;-76
2021/12/31 00:35:51;;;;;;;15.90;3.38;;;12.20;99.90;;;;;;4989752;28;20046;-77
2021/12/31 00:38:17;;;;;;;23.58;3.65;;;12.20;99.90;;;;;;5058065;28;20167;-76
2021/12/31 00:40:43;;;;;;;15.25;3.05;;;12.20;99.90;;;;;;4990479;28;20085;-77
2021/12/31 00:43:11;;;;;;;18.75;3.20;;;12.10;99.90;;;;;;4989819;28;20045;-76
2021/12/31 00:45:40;;;;;;;13.10;3.53;;;12.10;99.90;;;;;;4984191;28;20060;-76
2021/12/31 00:48:07;;;;;;;17.02;3.70;;;12.10;99.90;;;;;;4974090;28;20042;-76
2021/12/31 00:50:33;;;;;;;13.43;3.05;;;12.00;99.90;;;;;;4990247;28;20448;-76
2021/12/31 00:52:58;;;;;;;14.55;2.95;;;12.00;99.90;;;;;;4988968;28;20050;-76
2021/12/31 00:55:24;;;;;;;15.07;3.15;;;12.10;99.90;;;;;;4973850;28;20564;-76
2021/12/31 00:57:50;;;;;;;18.17;3.15;;;12.10;99.90;;;;;;4958471;28;20516;-76
2021/12/31 01:00:16;;;;;;;14.70;3.10;;;12.00;99.90;;;;;;4990644;28;20095;-76
2021/12/31 01:02:43;;;;;;;;;;;12.00;99.90;;;;;;4990652;28;20052;-76
2021/12/31 01:05:09;;;;;;;;;;;12.10;99.90;;;;;;4990979;28;19968;-76
2021/12/31 01:07:35;;;;;;;14.52;3.00;;;12.00;99.90;;;;;;4988399;28;19922;-77
2021/12/31 01:10:02;;;;;;;13.48;3.20;;;12.00;99.90;;;;;;4973701;28;20160;-77
2021/12/31 01:12:28;;;;;;;17.23;3.83;;;12.00;99.90;;;;;;4988138;28;20081;-77
2021/12/31 01:17:35;;;;;;;12.10;2.90;;;12.00;99.90;;;;;;4973079;28;20125;-77
2021/12/31 01:20:02;;;;;;;19.15;3.00;;;12.00;99.90;;;;;;4986687;28;20034;-77
2021/12/31 01:22:30;;;;;;;;;;;12.00;99.90;;;;;;4988418;28;20360;-77
2021/12/31 01:24:57;;;;;;;18.33;3.20;;;12.00;99.90;;;;;;4988874;28;19928;-77
2021/12/31 01:27:23;;;;;;;20.48;3.78;;;12.10;99.90;;;;;;4988626;28;20051;-77
2021/12/31 01:29:49;;;;;;;16.90;3.85;;;12.10;99.90;;;;;;4972755;28;20046;-77
2021/12/31 01:32:15;;;;;;;11.43;3.45;;;12.10;99.90;;;;;;4988286;28;20137;-77
2021/12/31 01:34:41;;;;;;;15.63;3.25;;;12.00;99.90;;;;;;4989099;28;20407;-77
2021/12/31 01:37:08;;;;;;;17.33;3.30;;;12.10;99.90;;;;;;4972812;28;20043;-77
2021/12/31 01:39:34;;;;;;;17.20;3.13;;;12.10;99.90;;;;;;4969592;28;20038;-77
2021/12/31 01:42:01;;;;;;;14.55;2.90;;;12.20;99.90;;;;;;4988968;28;20046;-77
2021/12/31 01:44:35;;;;;;;12.43;2.95;;;12.20;99.90;;;;;;4973383;28;20049;-77
2021/12/31 01:47:06;;;;;;;15.07;3.00;;;12.20;99.90;;;;;;4988475;28;20640;-77
2021/12/31 01:49:38;;;;;;;15.73;3.10;;;12.20;99.90;;;;;;4988681;28;20504;-77
2021/12/31 01:52:06;;;;;;;16.77;3.10;;;12.20;99.90;;;;;;4988831;28;20074;-77
2021/12/31 01:54:33;;;;;;;15.00;3.03;;;12.30;99.90;;;;;;4956870;28;20126;-77
2021/12/31 01:57:01;;;;;;;13.77;3.05;;;12.30;99.90;;;;;;4972655;28;20038;-77
2021/12/31 01:59:27;;;;;;;17.08;3.72;;;12.30;99.90;;;;;;4989191;28;20038;-77
2021/12/31 02:01:57;;;;;;;13.77;3.10;;;12.30;99.90;;;;;;4972969;28;20481;-77
2021/12/31 02:04:23;;;;;;;19.95;3.17;;;12.20;99.90;;;;;;4988223;28;20046;-77
2021/12/31 02:06:49;;;;;;;13.88;3.08;;;12.20;99.90;;;;;;4989449;28;20087;-77
2021/12/31 02:09:14;;;;;;;12.68;2.83;;;12.20;99.90;;;;;;4973029;28;20122;-77
2021/12/31 02:11:40;;;;;;;12.68;3.17;;;12.30;99.90;;;;;;4973224;28;20038;-77
2021/12/31 02:14:08;;;;;;;12.68;2.85;;;12.20;99.90;;;;;;4987893;28;20044;-77
2021/12/31 02:16:34;;;;;;;15.82;3.40;;;12.20;99.90;;;;;;4988812;28;20038;-77
2021/12/31 02:19:11;;;;;;;14.70;3.35;;;12.30;99.90;;;;;;4969335;28;20041;-77
2021/12/31 02:21:37;;;;;;;10.60;2.50;;;12.30;99.90;;;;;;4988071;28;20122;-77
2021/12/31 02:24:06;;;;;;;12.52;2.70;;;12.30;99.90;;;;;;4970892;28;20145;-77
2021/12/31 02:26:32;;;;;;;13.10;3.10;;;12.30;99.90;;;;;;4984026;28;20419;-77
2021/12/31 02:28:57;;;;;;;14.18;3.00;;;12.30;99.90;;;;;;4972560;28;20087;-77
2021/12/31 02:31:23;;;;;;;13.52;3.80;;;12.30;99.90;;;;;;4988328;28;20437;-77
2021/12/31 02:33:50;;;;;;;14.88;3.15;;;12.30;99.90;;;;;;4985694;28;20046;-77
2021/12/31 02:36:16;;;;;;;13.45;3.38;;;12.30;99.90;;;;;;4991683;28;20778;-77
2021/12/31 02:38:43;;;;;;;14.65;3.25;;;12.30;99.90;;;;;;4991505;28;20095;-77
2021/12/31 02:41:09;;;;;;;12.98;3.30;;;12.40;99.90;;;;;;4991982;28;20042;-78
2021/12/31 02:43:35;;;;;;;11.40;2.97;;;12.40;99.90;;;;;;4992196;28;20125;-77
2021/12/31 02:46:01;;;;;;;16.08;2.95;;;12.40;99.90;;;;;;4958961;28;20126;-77
2021/12/31 02:48:27;;;;;;;14.10;3.40;;;12.50;99.90;;;;;;4991649;28;20046;-77
2021/12/31 02:50:56;;;;;;;8.73;2.35;;;12.50;99.90;;;;;;4961840;28;20051;-77
2021/12/31 02:53:25;;;;;;;10.02;2.63;;;12.50;99.90;;;;;;4988347;28;20487;-77
2021/12/31 02:56:03;;;;;;;9.73;2.67;;;12.50;99.90;;;;;;4992381;28;20035;-77
2021/12/31 02:58:30;;;;;;;11.82;2.80;;;12.50;99.90;;;;;;4983759;28;20053;-77
2021/12/31 03:00:56;;;;;;;12.70;2.55;;;12.50;99.90;;;;;;4991745;28;20046;-78
2021/12/31 03:03:24;;;;;;;10.88;2.88;;;12.60;99.90;;;;;;4989721;28;20042;-78
2021/12/31 03:05:52;;;;;;;9.43;2.53;;;12.60;99.90;;;;;;4991060;28;20046;-77
2021/12/31 03:08:20;;;;;;;15.07;3.40;;;12.70;99.90;;;;;;4990930;28;20042;-78
2021/12/31 03:10:47;;;;;;;12.23;2.33;;;12.60;99.90;;;;;;4991672;28;20156;-77
2021/12/31 03:13:14;;;;;;;9.82;2.80;;;12.70;99.90;;;;;;4974796;28;20398;-78
2021/12/31 03:15:42;;;;;;;11.77;2.63;;;12.70;99.90;;;;;;4991762;28;20049;-77
2021/12/31 03:18:09;;;;;;;10.10;2.65;;;12.70;99.90;;;;;;4991223;28;20099;-77
2021/12/31 03:20:36;;;;;;;12.70;2.53;;;12.70;99.90;;;;;;4975490;28;20041;-77
2021/12/31 03:23:05;;;;;;;11.13;2.55;;;12.70;99.90;;;;;;4990123;28;20061;-77
2021/12/31 03:25:32;;;;;;;8.30;2.42;;;12.70;99.90;;;;;;4990481;28;20070;-77
2021/12/31 03:27:58;;;;;;;9.40;2.92;;;12.70;99.90;;;;;;4990384;28;20038;-77
2021/12/31 03:30:24;;;;;;;10.25;3.35;;;12.80;99.90;;;;;;4974564;28;20054;-77
2021/12/31 03:32:49;;;;;;;13.20;3.03;;;12.80;99.90;;;;;;4974918;28;20050;-77
2021/12/31 03:35:15;;;;;;;7.05;2.50;;;12.90;99.90;;;;;;4991762;28;20065;-77
2021/12/31 03:37:41;;;;;;;10.43;2.42;;;12.80;99.90;;;;;;4990393;28;20449;-77
2021/12/31 03:40:07;;;;;;;8.30;2.45;;;12.80;99.90;;;;;;4974549;28;20813;-76
2021/12/31 03:42:33;;;;;;;11.70;3.05;;;12.70;99.90;;;;;;4974050;28;20103;-77
2021/12/31 03:44:58;;;;;;;8.10;2.30;;;12.80;99.90;;;;;;4973582;28;20042;-77
2021/12/31 03:47:24;;;;;;;8.25;2.13;;;12.70;99.90;;;;;;4991419;28;20088;-78
2021/12/31 03:49:50;;;;;;;8.82;2.50;;;12.70;99.90;;;;;;4990015;28;20175;-77
2021/12/31 03:52:16;;;;;;;9.93;2.28;;;12.70;99.90;;;;;;4990789;28;20107;-77
2021/12/31 03:54:41;;;;;;;11.15;2.78;;;12.70;99.90;;;;;;4990979;28;20038;-77
2021/12/31 03:57:07;;;;;;;11.18;2.45;;;12.70;99.90;;;;;;4975284;28;20031;-77
2021/12/31 03:59:33;;;;;;;9.02;2.17;;;12.70;99.90;;;;;;5059079;28;20129;-77
2021/12/31 04:01:59;;;;;;;9.93;2.30;;;12.70;99.90;;;;;;4973340;28;20043;-77
2021/12/31 04:04:24;;;;;;;10.32;2.67;;;12.70;99.90;;;;;;4973905;28;20042;-76
2021/12/31 04:06:50;;;;;;;7.22;2.28;;;12.80;99.90;;;;;;4990434;28;20047;-77
2021/12/31 04:09:16;;;;;;;7.68;2.08;;;12.70;99.90;;;;;;4990601;28;20046;-77
2021/12/31 04:11:41;;;;;;;11.27;2.08;;;12.80;99.90;;;;;;4991256;28;20483;-77
2021/12/31 04:14:07;;;;;;;10.43;2.42;;;12.80;99.90;;;;;;4973054;28;20038;-77
2021/12/31 04:16:33;;;;;;;10.23;2.25;;;12.80;99.90;;;;;;4990199;28;20042;-77
2021/12/31 04:18:59;;;;;;;11.32;2.20;;;12.80;99.90;;;;;;4974829;28;20125;-77
2021/12/31 04:21:25;;;;;;;6.88;1.95;;;12.80;99.90;;;;;;4987927;28;20038;-77
2021/12/31 04:24:06;;;;;;;;;;;12.80;99.90;;;;;;4989354;28;20066;-76
2021/12/31 04:26:32;;;;;;;10.27;1.95;;;12.80;99.90;;;;;;4959790;28;19930;-77
2021/12/31 04:28:58;;;;;;;12.50;2.67;;;12.80;99.90;;;;;;4972695;28;20046;-76
2021/12/31 04:31:24;;;;;;;12.23;3.08;;;12.90;99.90;;;;;;4973173;28;20049;-77
2021/12/31 04:33:49;;;;;;;6.75;2.03;;;12.90;99.90;;;;;;4989059;28;20128;-77
2021/12/31 04:36:15;;;;;;;10.52;2.45;;;12.90;99.90;;;;;;4973219;28;20429;-76
2021/12/31 04:38:41;;;;;;;10.38;2.60;;;12.80;99.90;;;;;;4973005;28;20038;-77
2021/12/31 04:41:07;;;;;;;7.20;2.17;;;12.90;99.90;;;;;;4973626;28;20110;-77
2021/12/31 04:43:32;;;;;;;10.75;2.60;;;12.80;99.90;;;;;;4988615;28;20061;-77
2021/12/31 04:45:58;;;;;;;8.05;2.05;;;12.90;99.90;;;;;;4973871;28;20050;-77
2021/12/31 04:48:24;;;;;;;9.43;2.30;;;12.90;99.90;;;;;;4973445;28;20050;-77
2021/12/31 04:50:50;;;;;;;9.90;2.10;;;13.00;99.90;;;;;;4973167;28;20053;-77
2021/12/31 04:53:16;;;;;;;9.68;2.15;;;13.00;99.90;;;;;;4989351;28;20055;-76
2021/12/31 04:55:42;;;;;;;9.18;2.00;;;13.00;99.90;;;;;;4976611;28;20035;-77
2021/12/31 04:58:07;;;;;;;8.85;2.30;;;13.00;99.90;;;;;;4972260;28;22165;-77
2021/12/31 05:00:33;;;;;;;6.97;2.63;;;13.00;99.90;;;;;;4973851;28;20070;-76
2021/12/31 05:03:09;;;;;;;8.23;2.47;;;13.00;99.90;;;;;;4986636;28;20076;-76
2021/12/31 05:05:35;;;;;;;5.60;1.80;;;13.10;99.90;;;;;;4987091;28;20042;-76
2021/12/31 05:08:02;;;;;;;11.82;2.55;;;13.10;99.90;;;;;;4972447;28;20062;-79
2021/12/31 05:10:31;;;;;;;7.80;1.98;;;13.00;99.90;;;;;;4991354;28;20127;-79
2021/12/31 05:12:58;;;;;;;6.65;2.00;;;13.00;99.90;;;;;;4973104;28;20730;-79
2021/12/31 05:15:26;;;;;;;8.13;2.15;;;12.90;99.90;;;;;;4979568;28;20133;-79
2021/12/31 05:17:52;;;;;;;6.10;1.92;;;12.80;99.90;;;;;;4960416;28;20042;-79
2021/12/31 05:20:17;;;;;;;7.03;1.98;;;12.80;99.90;;;;;;4992341;28;20038;-80
2021/12/31 05:22:43;;;;;;;7.78;1.95;;;12.90;99.90;;;;;;4992212;28;20058;-80
2021/12/31 05:25:09;;;;;;;8.05;2.22;;;12.90;99.90;;;;;;5059447;28;20730;-79
2021/12/31 05:27:35;;;;;;;7.28;1.90;;;12.90;99.90;;;;;;4976033;28;20077;-79
2021/12/31 05:30:00;;;;;;;5.10;1.50;;;12.90;99.90;;;;;;4974990;28;20126;-81
2021/12/31 05:32:26;;;;;;;3.70;1.60;;;12.90;99.90;;;;;;4974565;28;20137;-79
2021/12/31 05:34:52;;;;;;;5.50;1.92;;;12.70;99.90;;;;;;4972488;28;20050;-80
2021/12/31 05:37:17;;;;;;;5.15;1.60;;;12.70;99.90;;;;;;4964217;28;20034;-80
2021/12/31 05:39:44;;;;;;;7.45;2.38;;;12.70;99.90;;;;;;4986721;28;20854;-80
2021/12/31 05:42:11;;;;;;;5.63;1.98;;;12.60;99.90;;;;;;4992519;28;20053;-80
2021/12/31 05:44:36;;;;;;;6.95;2.20;;;12.60;99.90;;;;;;4973510;28;20096;-80
2021/12/31 05:47:02;;;;;;;5.30;2.03;;;12.60;99.90;;;;;;4970918;28;20042;-78
2021/12/31 05:49:28;;;;;;;5.88;1.90;;;12.60;99.90;;;;;;4973495;28;20038;-75
2021/12/31 05:51:54;;;;;;;;;;;12.70;99.90;;;;;;4985969;28;20043;-75
2021/12/31 05:54:20;;;;;;;3.78;2.03;;;12.70;99.90;;;;;;4973178;28;19926;-76
2021/12/31 05:56:45;;;;;;;6.03;2.05;;;12.70;99.90;;;;;;4990763;28;20054;-76
2021/12/31 05:59:11;;;;;;;7.78;2.30;;;12.70;99.90;;;;;;4990567;28;20064;-79
2021/12/31 06:01:37;;;;;;;3.95;2.15;;;12.70;99.90;;;;;;4990801;28;20050;-78
2021/12/31 06:04:03;;;;;;;5.82;2.30;;;12.80;99.90;;;;;;4990113;28;20039;-78
2021/12/31 06:06:28;;;;;;;4.68;2.00;;;12.80;99.90;;;;;;4988499;28;20042;-78
2021/12/31 06:08:54;;;;;;;6.10;2.20;;;12.90;99.90;;;;;;4972987;28;20155;-78
2021/12/31 06:11:20;;;;;;;4.60;1.65;;;13.00;99.90;;;;;;4973986;28;20045;-78
2021/12/31 06:13:49;;;;;;;5.00;1.95;;;12.90;99.90;;;;;;4954651;28;20039;-77
2021/12/31 06:16:15;;;;;;;4.05;1.55;;;12.90;99.90;;;;;;4989267;28;20050;-77
2021/12/31 06:18:41;;;;;;;5.28;1.88;;;12.90;99.90;;;;;;4986828;28;20047;-78
2021/12/31 06:21:07;;;;;;;6.30;1.85;;;13.00;99.90;;;;;;4980164;28;20039;-77
2021/12/31 06:23:33;;;;;;;7.32;1.85;;;13.00;99.90;;;;;;4990174;28;20062;-77
2021/12/31 06:25:59;;;;;;;8.68;2.30;;;12.90;99.90;;;;;;4990556;28;20050;-76
2021/12/31 06:28:24;;;;;;;6.57;2.00;;;13.00;99.90;;;;;;4990157;28;20406;-77
2021/12/31 06:30:50;;;;;;;7.53;2.13;;;13.00;99.90;;;;;;4973867;28;20049;-77
2021/12/31 06:33:16;;;;;;;4.18;1.95;;;13.00;99.90;;;;;;4991322;28;20199;-78
2021/12/31 06:35:41;;;;;;;4.28;2.03;;;13.00;99.90;;;;;;5010620;28;20045;-77
2021/12/31 06:38:07;;;;;;;3.53;1.92;;;12.90;99.90;;;;;;4989601;28;20034;-77
2021/12/31 06:40:35;;;;;;;6.93;1.95;;;13.00;99.90;;;;;;4990057;28;20054;-77
2021/12/31 06:43:01;;;;;;;5.07;2.03;;;12.90;99.90;;;;;;4990190;28;20054;-77
2021/12/31 06:45:26;;;;;;;4.45;1.67;;;12.90;99.90;;;;;;4972050;28;20087;-77
2021/12/31 06:47:53;;;;;;;3.03;1.80;;;12.90;99.90;;;;;;4989276;28;20464;-77
2021/12/31 06:50:18;;;;;;;4.82;2.20;;;12.90;99.90;;;;;;4988904;28;20042;-77
2021/12/31 06:52:45;;;;;;;5.40;2.00;;;12.90;99.90;;;;;;4977534;28;20087;-76
2021/12/31 06:55:11;;;;;;;5.50;2.28;;;12.90;99.90;;;;;;4989066;28;20122;-77
2021/12/31 06:57:37;;;;;;;6.45;2.20;;;12.80;99.90;;;;;;4989004;28;20368;-77
2021/12/31 07:00:07;;;;;;;4.60;1.92;;;12.80;99.90;;;;;;4988864;28;20096;-77
2021/12/31 07:02:33;;;;;;;3.40;1.83;;;12.90;99.90;;;;;;4988592;28;20042;-77
2021/12/31 07:04:59;;;;;;;5.63;2.05;;;12.80;99.90;;;;;;4969132;28;20108;-77
2021/12/31 07:07:24;;;;;;;3.95;1.67;;;12.80;99.90;;;;;;4970979;28;20042;-77
2021/12/31 07:09:50;;;;;;;3.15;1.80;;;12.70;99.90;;;;;;4982372;28;20043;-77
2021/12/31 07:12:16;;;;;;;6.78;1.88;;;12.80;99.90;;;;;;4964354;28;20049;-77
2021/12/31 07:14:42;;;;;;;6.75;2.28;;;12.70;99.90;;;;;;4985394;28;20038;-77
2021/12/31 07:17:08;;;;;;;4.95;2.00;;;12.70;99.90;;;;;;4986770;28;20487;-77
2021/12/31 07:19:34;;;;;;;;;;;12.70;99.90;;;;;;4974943;28;20038;-76
2021/12/31 07:22:00;;;;;;;4.13;1.67;;;12.70;99.90;;;;;;4972764;28;20427;-77
2021/12/31 07:24:26;;;;;;;4.35;1.70;;;12.70;99.90;;;;;;4989748;28;20042;-78
2021/12/31 07:26:52;;;;;;;6.32;2.00;;;12.60;99.90;;;;;;4990044;28;20034;-76
2021/12/31 07:29:18;;;;;;;3.67;1.80;;;12.70;99.90;;;;;;4973942;28;20050;-75
2021/12/31 07:31:44;;;;;;;6.50;1.88;;;12.70;99.90;;;;;;4996567;28;20045;-74
2021/12/31 07:34:09;;;;;;;5.50;1.75;;;12.60;99.90;;;;;;4972973;28;20042;-75
2021/12/31 07:36:35;;;;;;;6.38;1.80;;;12.60;99.90;;;;;;4989740;28;20056;-76
2021/12/31 07:39:06;;;;;;;3.08;1.73;;;12.60;99.90;;;;;;4981044;28;20928;-77
2021/12/31 07:41:32;;;;;;;7.00;1.80;;;12.60;99.90;;;;;;4986999;28;20592;-77
2021/12/31 07:43:58;;;;;;;;;;;12.60;99.90;;;;;;4974448;28;20061;-78
2021/12/31 07:46:24;;;;;;;5.38;1.77;;;12.50;99.90;;;;;;4988838;28;20453;-79
2021/12/31 07:48:49;;;;;;;6.13;1.77;;;12.60;99.90;;;;;;4976303;28;20082;-78
2021/12/31 07:51:16;;;;;;;5.90;2.22;;;12.60;99.90;;;;;;4992378;28;20054;-78
2021/12/31 07:53:41;;;;;;;3.65;1.85;;;12.60;99.90;;;;;;4975927;28;20042;-78
2021/12/31 07:56:07;;;;;;;3.33;1.70;;;12.60;99.90;;;;;;4979719;28;20471;-78
2021/12/31 07:58:33;;;;;;;6.20;1.73;;;12.70;99.90;;;;;;4981761;28;20488;-78
2021/12/31 08:00:58;;;;;;;7.20;1.92;;;12.70;99.90;;;;;;4985429;28;20034;-78
2021/12/31 08:03:24;;;;;;;4.40;1.50;;;12.60;99.90;;;;;;4992410;28;20136;-77
2021/12/31 08:05:50;;;;;;;6.18;2.00;;;12.70;99.90;;;;;;4992334;28;20051;-79
2021/12/31 08:08:15;;;;;;;5.18;1.70;;;12.70;99.90;;;;;;4993179;28;20130;-78
2021/12/31 08:10:41;;;;;;;4.20;1.73;;;12.70;99.90;;;;;;4994000;28;20038;-78
2021/12/31 08:13:07;;;;;;;3.53;1.50;;;12.60;99.90;;;;;;4992233;28;20159;-78
2021/12/31 08:15:33;;;;;;;6.75;2.47;;;12.70;99.90;;;;;;4992930;28;20057;-78
2021/12/31 08:17:58;;;;;;;4.15;1.95;;;12.60;99.90;;;;;;4973592;28;20069;-78
2021/12/31 08:20:25;;;;;;;5.57;1.77;;;12.60;99.90;;;;;;4992240;28;20466;-78
2021/12/31 08:22:52;;;;;;;6.93;2.15;;;12.70;99.90;;;;;;4990054;28;20062;-76
2021/12/31 08:25:18;;;;;;;4.10;1.70;;;12.60;99.90;;;;;;4987417;28;20054;-75
2021/12/31 08:27:44;;;;;;;4.30;1.60;;;12.60;99.90;;;;;;4972184;28;20053;-77
2021/12/31 08:30:11;;;;;;;8.68;2.25;;;12.60;99.90;;;;;;4989327;28;20046;-75
2021/12/31 08:32:37;;;;;;;5.25;1.60;;;12.70;99.90;;;;;;4988748;28;20078;-76
2021/12/31 08:35:04;;;;;;;4.30;1.67;;;12.70;99.90;;;;;;4972941;28;20052;-77
2021/12/31 08:37:32;;;;;;;5.82;2.33;;;12.70;99.90;;;;;;4986413;28;20121;-77
2021/12/31 08:39:58;;;;;;;4.00;1.80;;;12.70;99.90;;;;;;4984430;28;20066;-78
2021/12/31 08:42:24;;;;;;;5.88;1.90;;;12.70;99.90;;;;;;4984541;28;20188;-77
2021/12/31 08:44:50;;;;;;;4.97;1.70;;;12.70;99.90;;;;;;4970401;28;20050;-78
2021/12/31 08:47:16;;;;;;;4.95;1.80;;;12.70;99.90;;;;;;4971361;28;20071;-77
2021/12/31 08:49:41;;;;;;;5.53;2.58;;;12.70;99.90;;;;;;4969681;28;20042;-77
2021/12/31 08:52:07;;;;;;;5.38;1.65;;;12.70;99.90;;;;;;4955266;28;20093;-78
2021/12/31 08:54:33;;;;;;;3.70;1.60;;;12.70;99.90;;;;;;4984936;28;20084;-77
2021/12/31 08:57:00;;;;;;;6.80;1.85;;;12.70;99.90;;;;;;4987559;28;20493;-76
2021/12/31 08:59:26;;;;;;;4.72;1.80;;;12.70;99.90;;;;;;4972352;28;20453;-78
2021/12/31 09:01:52;;;;;;;6.10;2.65;;;12.70;99.90;;;;;;4978511;28;20103;-75
2021/12/31 09:04:18;;;;;;;4.53;1.85;;;12.70;99.90;;;;;;4966947;28;20035;-76
2021/12/31 09:06:43;;;;;;;5.55;2.13;;;12.70;99.90;;;;;;4975220;28;20054;-77
2021/12/31 09:09:09;;;;;;;4.13;1.88;;;12.70;99.90;;;;;;4986833;28;20047;-79
2021/12/31 09:11:35;;;;;;;4.32;1.90;;;12.70;99.90;;;;;;4971997;28;20043;-78
2021/12/31 09:14:01;;;;;;;4.57;2.05;;;12.70;99.90;;;;;;4985633;28;20047;-78
2021/12/31 09:16:27;;;;;;;4.40;2.10;;;12.70;99.90;;;;;;4963671;28;20390;-77
2021/12/31 09:18:52;;;;;;;4.32;2.05;;;12.70;99.90;;;;;;4988904;28;20061;-79
2021/12/31 09:21:22;;;;;;;5.47;2.63;;;12.70;99.90;;;;;;4961632;28;20042;-78
2021/12/31 09:23:48;;;;;;;5.55;2.00;;;12.60;99.90;;;;;;4986260;28;20145;-78
2021/12/31 09:26:15;;;;;;;6.68;2.13;;;12.60;99.90;;;;;;4978649;28;20046;-78
2021/12/31 09:28:42;;;;;;;4.50;2.22;;;12.60;99.90;;;;;;4985131;28;20076;-77
2021/12/31 09:31:09;;;;;;;5.68;2.53;;;12.60;99.90;;;;;;5053852;28;20057;-77
2021/12/31 09:33:35;;;;;;;5.18;2.20;;;12.60;99.90;;;;;;4987717;28;20347;-78
2021/12/31 09:36:01;;;;;;;3.15;1.90;;;12.60;99.90;;;;;;4984129;28;20053;-77
2021/12/31 09:38:26;;;;;;;7.05;2.13;;;12.60;99.90;;;;;;4985369;28;20117;-77
2021/12/31 09:40:53;;;;;;;7.68;2.20;;;12.60;99.90;;;;;;4988258;28;20133;-78
2021/12/31 09:43:20;;;;;;;4.82;2.00;;;12.60;99.90;;;;;;4985267;28;20140;-79
2021/12/31 09:45:49;;;;;;;4.03;2.03;;;12.50;99.90;;;;;;4987030;28;20092;-78
2021/12/31 09:48:18;;;;;;;7.05;2.63;;;12.60;99.90;;;;;;4983304;28;20092;-78
2021/12/31 09:50:47;;;;;;;5.38;2.42;;;12.60;99.90;;;;;;4984696;28;20042;-78
2021/12/31 09:53:15;;;;;;;8.95;2.25;;;12.60;99.90;;;;;;4990414;28;20092;-78
2021/12/31 09:55:52;;;;;;;6.85;2.33;;;12.50;99.90;;;;;;4989857;28;20441;-78
2021/12/31 09:58:20;;;;;;;5.60;2.08;;;12.50;99.90;;;;;;4989781;28;20069;-79
2021/12/31 10:00:48;;;;;;;7.47;2.50;;;12.50;99.90;;;;;;4989238;28;20084;-79
2021/12/31 10:03:15;;;;;;;5.38;1.95;;;12.40;99.90;;;;;;4989628;28;20042;-78
2021/12/31 10:05:46;;;;;;;7.25;2.30;;;12.40;99.90;;;;;;4989594;28;20147;-79
2021/12/31 10:08:30;;;;;;;8.65;2.60;;;12.20;99.90;;;;;;4986664;28;20046;-79
2021/12/31 10:11:13;;;;;;;4.88;2.17;;;12.20;99.90;;;;;;5034634;28;20113;-78
2021/12/31 10:13:45;;;;;;;5.78;2.10;;;12.10;99.90;;;;;;4988806;28;20046;-78
2021/12/31 10:16:32;;;;;;;4.38;2.30;;;12.00;99.90;;;;;;4987520;28;20111;-78
2021/12/31 10:19:11;;;;;;;6.97;2.60;;;12.00;99.90;;;;;;4988142;28;20031;-77
2021/12/31 10:21:43;;;;;;;6.22;2.47;;;12.00;99.90;;;;;;4989051;28;20050;-78
2021/12/31 10:24:32;;;;;;;6.03;2.30;;;12.00;99.90;;;;;;4988841;28;20058;-78
2021/12/31 10:27:23;;;;;;;7.80;2.35;;;12.00;99.90;;;;;;4971937;28;20046;-79
2021/12/31 10:29:53;;;;;;;5.28;2.28;;;12.00;99.90;;;;;;4975528;28;20053;-79
2021/12/31 10:32:20;;;;;;;6.40;2.60;;;11.90;99.90;;;;;;4967688;28;20050;-78
2021/12/31 10:34:46;;;;;;;7.03;2.50;;;11.90;99.90;;;;;;4985389;28;20046;-78
2021/12/31 10:37:23;;;;;;;7.25;2.65;;;12.00;99.90;;;;;;4968108;28;20117;-77
2021/12/31 10:40:02;;;;;;;10.13;3.10;;;12.00;99.90;;;;;;4988822;28;20088;-77
2021/12/31 10:42:29;;;;;;;5.35;2.60;;;12.00;99.90;;;;;;4982591;28;20056;-78
2021/12/31 10:44:57;;;;;;;8.82;2.75;;;12.00;99.90;;;;;;4979431;28;20363;-78
2021/12/31 10:47:31;;;;;;;7.50;2.53;;;11.90;99.90;;;;;;4985184;28;20061;-77
2021/12/31 10:50:03;;;;;;;8.45;2.60;;;12.00;99.90;;;;;;4984594;28;20103;-76
2021/12/31 10:52:39;;;;;;;8.32;2.90;;;12.00;99.90;;;;;;4985614;28;20523;-78
2021/12/31 10:55:20;;;;;;;5.90;2.60;;;12.00;99.90;;;;;;4984158;28;20038;-77
2021/12/31 10:57:51;;;;;;;7.20;2.53;;;12.00;99.90;;;;;;4991055;28;20034;-77
2021/12/31 11:00:18;;;;;;;8.43;2.42;;;11.90;99.90;;;;;;4984649;28;20062;-78
2021/12/31 11:02:45;;;;;;;8.00;2.75;;;11.90;99.90;;;;;;4966343;28;20042;-76
2021/12/31 11:05:11;;;;;;;;;;;11.90;99.90;;;;;;5054830;28;20118;-78
2021/12/31 11:07:39;;;;;;;5.57;2.67;;;11.90;99.90;;;;;;4989295;28;20302;-78
2021/12/31 11:10:06;;;;;;;6.78;2.88;;;11.90;99.90;;;;;;4987377;28;20121;-78
2021/12/31 11:12:34;;;;;;;5.65;3.20;;;12.00;99.90;;;;;;4971040;28;20100;-77
2021/12/31 11:15:00;;;;;;;6.07;2.90;;;11.90;99.90;;;;;;4990664;28;20042;-78
2021/12/31 11:17:26;;;;;;;;;;;11.90;99.90;;;;;;4955963;28;20038;-78
2021/12/31 11:19:52;;;;;;;9.85;3.20;;;11.90;99.90;;;;;;5007084;28;19928;-79
2021/12/31 11:22:23;;;;;;;6.18;2.83;;;11.90;99.90;;;;;;4985340;28;20070;-79
2021/12/31 11:24:48;;;;;;;7.47;3.33;;;11.80;99.90;;;;;;4989930;28;20439;-79
2021/12/31 11:27:30;;;;;;;6.40;2.72;;;11.70;99.90;;;;;;4981276;28;20149;-78
2021/12/31 11:29:58;;;;;;;6.78;3.40;;;11.70;99.90;;;;;;4974148;28;20034;-78
2021/12/31 11:32:45;;;;;;;9.73;3.40;;;11.70;99.90;;;;;;4989280;28;20043;-78
2021/12/31 11:35:39;;;;;;;8.05;3.17;;;11.70;99.90;;;;;;5015112;28;20038;-77
2021/12/31 11:38:08;;;;;;;8.25;3.10;;;11.70;99.90;;;;;;4991317;28;20117;-78
2021/12/31 11:40:50;;;;;;;6.72;2.95;;;11.80;99.90;;;;;;4996154;28;20046;-78
2021/12/31 11:43:25;;;;;;;8.73;3.38;;;11.70;99.90;;;;;;4976234;28;20043;-77
2021/12/31 11:46:09;;;;;;;8.90;3.05;;;11.70;99.90;;;;;;4985807;28;20046;-79
2021/12/31 11:48:50;;;;;;;6.35;2.88;;;11.60;99.90;;;;;;4990039;28;20059;-78
2021/12/31 11:51:17;;;;;;;7.90;3.20;;;11.60;99.90;;;;;;4988708;28;20038;-77
2021/12/31 11:54:00;;;;;;;6.43;3.03;;;11.60;99.90;;;;;;4972084;28;20050;-79
2021/12/31 11:56:47;;;;;;;6.47;3.38;;;11.60;99.90;;;;;;4971585;28;20045;-78
2021/12/31 11:59:13;;;;;;;8.40;3.20;;;11.60;99.90;;;;;;5048980;28;20031;-79
2021/12/31 12:01:53;;;;;;;7.60;2.88;;;11.60;99.90;;;;;;4964112;28;20043;-78
2021/12/31 12:04:38;;;;;;;7.18;2.58;;;11.50;99.90;;;;;;5002110;28;20049;-79
2021/12/31 12:07:11;;;;;;;6.63;2.65;;;11.50;99.90;;;;;;4983995;28;20084;-78
2021/12/31 12:09:36;;;;;;;5.15;2.70;;;11.50;99.90;;;;;;4989301;28;20104;-78
2021/12/31 12:12:07;;;;;;;7.38;3.28;;;11.40;99.90;;;;;;4987041;28;20096;-77
2021/12/31 12:14:53;;;;;;;5.25;3.33;;;11.50;99.90;;;;;;4990428;28;20081;-80
2021/12/31 12:17:28;;;;;;;6.65;3.50;;;11.50;99.90;;;;;;4971537;28;20456;-80
2021/12/31 12:19:56;;;;;;;5.60;2.65;;;11.50;99.90;;;;;;4988786;28;20648;-79
2021/12/31 12:22:49;;;;;;;7.35;2.92;;;11.50;99.90;;;;;;4983972;28;20066;-79
2021/12/31 12:25:27;;;;;;;6.78;2.85;;;11.40;99.90;;;;;;4988811;28;20038;-79
2021/12/31 12:27:57;;;;;;;4.93;2.42;;;11.30;99.90;;;;;;4972945;28;20038;-78
2021/12/31 12:30:23;;;;;;;4.28;2.55;;;11.40;99.90;;;;;;4985462;28;20038;-75
2021/12/31 12:33:06;;;;;;;5.38;2.78;;;11.40;99.90;;;;;;4990035;28;20173;-78
2021/12/31 12:35:36;;;;;;;5.00;2.47;;;11.50;99.90;;;;;;4988501;28;20044;-77
2021/12/31 12:38:22;;;;;;;5.85;2.50;;;11.50;99.90;;;;;;4989233;28;20046;-80
2021/12/31 12:40:54;;;;;;;3.75;2.47;;;11.50;99.90;;;;;;4991608;28;20048;-80
2021/12/31 12:43:38;;;;;;;4.82;2.80;;;11.50;99.90;;;;;;4989848;28;20498;-79
2021/12/31 12:46:11;;;;;;;4.25;2.70;;;11.50;99.90;;;;;;4992222;28;20088;-80
2021/12/31 12:48:41;;;;;;;4.32;2.65;;;11.50;99.90;;;;;;4976214;28;20134;-79
2021/12/31 12:51:11;;;;;;;5.70;3.63;;;11.50;99.90;;;;;;4991443;28;20050;-79
2021/12/31 12:53:40;;;;;;;5.00;2.95;;;11.50;99.90;;;;;;4990971;28;20047;-79